Newark, Texas
Current Conditions -  °F | °C
As of 8:53 PM on Monday 26 Jan 2015 (Local Time) from KAFW Reporting Station
Few Clouds Few Clouds  
Wind Chill: 52°   Ceiling: Unl
Heat Index: 52°   Visibility: 10mi
Dew Point: 36°   Wind: 6mph
Humidity: 54%   Direction: 240°WSW
Pressure: 30.07"   Gusts: NA
Location:  33°N, 97.48°W
Report Text: KAFW 270253Z 24005KT 10SM FEW300 11/02 A3007 RMK AO2 SLP185 T01110022 55001
Loading
Personal Weather Stations






























Interactive Weather Map New forecast layout! Learn more

10-Day Weather Forecast

Advertisements
Track Severe Weather on mobile